Latest Weather Observations for Rutherglen RS

IDV60801

Issued at 3:02 pm EDT Friday 19 December 2014 (issued every 30 minutes, with the page automatically refreshed every 10 minutes)

About weather observations | Map of weather stations | Latest weather observations for VIC | Other Formats
Station Details ID: 082039 Name: RUTHERGLEN RESEARCH Lat: -36.10 Lon: 146.51 Height: 175.0 m
Data from the previous 72 hours. | See also: Recent months at Rutherglen RS
Date/Time
EDT
Temp
°C
App
Temp
°C
Dew
Point
Rel
Hum
%
Delta-T
°C
Wind Press
QNH
hPa
Press
MSL
hPa
Rain
since 9 am
mm
Dir
 
Spd
km/h
Gust
km/h
Spd
kts
Gust
kts
19/03:00pm 22.7 17.1 3.3 28 9.4 SW 22 37 12 20 - - 0.0
19/02:30pm 22.7 17.4 2.8 27 9.6 SW 20 32 11 17 - - 0.0
19/02:00pm 22.8 16.5 3.9 29 9.3 WSW 26 35 14 19 - - 0.0
19/01:30pm 22.0 16.8 3.6 30 8.9 WSW 20 33 11 18 - - 0.0
19/01:00pm 23.0 17.0 3.5 28 9.5 SW 24 43 13 23 - - 0.0
19/12:30pm 21.7 16.8 3.9 31 8.7 SW 19 37 10 20 - - 0.0
19/12:00pm 20.5 15.3 3.7 33 8.1 S 20 32 11 17 - - 0.0
19/11:30am 20.3 15.2 3.9 34 7.9 SW 20 32 11 17 - - 0.0
19/11:00am 19.4 14.3 4.0 36 7.4 SSW 20 35 11 19 - - 0.0
19/10:30am 19.4 14.5 4.3 37 7.3 SSE 19 26 10 14 - - 0.0
19/10:00am 17.7 13.0 5.3 44 6.0 SSW 19 26 10 14 - - 0.0
19/09:30am 18.2 13.0 5.4 43 6.3 SSE 22 35 12 19 - - 0.0
19/09:00am 16.6 11.9 5.3 47 5.5 S 19 28 10 15 - - 0.0
19/08:30am 16.1 11.7 6.5 53 4.7 SSW 19 26 10 14 - - 0.0
19/08:00am 14.1 10.1 8.3 68 2.9 SW 19 26 10 14 - - 0.0
19/07:30am 12.3 8.7 8.2 76 2.0 SW 17 22 9 12 - - 0.0
19/07:00am 11.0 7.8 8.6 85 1.2 WSW 15 19 8 10 - - 0.0
19/06:30am 7.2 4.8 7.1 99 0.0 SW 9 11 5 6 - - 0.0
19/06:00am 5.6 3.3 5.5 99 0.0 SW 7 7 4 4 - - 0.0
19/05:30am 6.6 4.7 6.5 99 0.0 WSW 6 6 3 3 - - 0.0
19/05:00am 7.0 4.6 6.9 99 0.0 WSW 9 9 5 5 - - 0.0
19/04:30am 7.8 5.4 7.1 95 0.3 WSW 9 11 5 6 - - 0.0
19/04:00am 8.5 5.7 7.0 90 0.7 WSW 11 13 6 7 - - 0.0
19/03:30am 8.9 5.8 7.4 90 0.7 WSW 13 15 7 8 - - 0.0
19/03:00am 8.2 5.6 6.0 86 1.0 WSW 9 11 5 6 - - 0.0
19/02:30am 10.4 8.4 6.9 79 1.7 SSW 7 9 4 5 - - 0.0
19/02:00am 11.8 9.6 7.7 76 2.0 SSW 9 13 5 7 - - 0.0
19/01:30am 10.1 7.4 7.3 83 1.3 SW 11 13 6 7 - - 0.0
19/01:00am 11.2 8.9 7.3 77 1.9 SW 9 13 5 7 - - 0.0
19/12:30am 11.3 9.4 7.4 77 1.9 SSE 7 11 4 6 - - 0.0
19/12:00am 13.0 10.5 8.3 73 2.4 SW 11 17 6 9 - - 0.0
 
Date/Time
EDT
Temp
°C
App
Temp
°C
Dew
Point
Rel
Hum
%
Delta-T
°C
Wind Press
QNH
hPa
Press
MSL
hPa
Rain
since 9 am
mm
Dir
 
Spd
km/h
Gust
km/h
Spd
kts
Gust
kts
18/11:30pm 14.0 11.2 8.4 69 2.8 SW 13 19 7 10 - - 0.0
18/11:00pm 14.5 11.7 8.7 68 3.0 SSW 13 19 7 10 - - 0.0
18/10:30pm 15.1 11.6 8.8 66 3.2 SW 17 22 9 12 - - 0.0
18/10:00pm 15.3 12.2 8.8 65 3.3 SW 15 20 8 11 - - 0.0
18/09:30pm 15.9 13.1 8.4 61 3.8 SW 13 19 7 10 - - 0.0
18/09:00pm 17.3 14.1 8.4 56 4.6 SSW 15 22 8 12 - - 0.0
18/08:30pm 19.2 14.5 7.6 47 6.0 SSW 22 35 12 19 - - 0.0
18/08:02pm 20.4 13.6 7.1 42 6.8 SW 32 50 17 27 - - 0.0
18/08:00pm 20.6 13.5 6.5 40 7.2 SW 33 50 18 27 - - 0.0
18/07:39pm 22.6 15.7 4.6 31 8.9 WSW 30 48 16 26 - - 0.0
18/07:30pm 23.6 15.7 2.4 25 10.2 WSW 33 46 18 25 - - 0.0
18/07:00pm 25.1 18.2 2.5 23 11.0 WSW 28 39 15 21 - - 0.0
18/06:51pm 25.3 17.0 2.1 22 11.2 WSW 35 54 19 29 - - 0.0
18/06:30pm 25.3 17.0 2.1 22 11.2 WSW 35 48 19 26 - - 0.0
18/06:05pm 26.0 18.4 2.7 22 11.4 W 32 50 17 27 - - 0.0
18/06:00pm 25.6 17.8 2.9 23 11.2 WSW 33 50 18 27 - - 0.0
18/05:48pm 27.0 20.1 2.8 21 12.0 W 28 50 15 27 - - 0.0
18/05:30pm 26.6 19.4 3.2 22 11.6 W 30 44 16 24 - - 0.0
18/05:00pm 26.4 19.8 2.3 21 11.8 W 26 41 14 22 - - 0.0
18/04:37pm 27.8 20.9 2.8 20 12.4 W 28 50 15 27 - - 0.0
18/04:30pm 27.5 20.6 2.6 20 12.3 WNW 28 41 15 22 - - 0.0
18/04:01pm 28.3 21.1 3.2 20 12.6 W 30 48 16 26 - - 0.0
18/04:00pm 27.9 20.3 2.9 20 12.5 W 32 48 17 26 - - 0.0
18/03:30pm 27.6 19.8 1.9 19 12.6 WSW 32 44 17 24 - - 0.0
18/03:00pm 27.4 20.6 1.0 18 12.7 W 26 41 14 22 - - 0.0
18/02:30pm 27.1 19.9 0.8 18 12.6 WSW 28 39 15 21 - - 0.0
18/02:00pm 26.8 20.5 1.3 19 12.3 WNW 24 39 13 21 - - 0.0
18/01:30pm 27.2 20.4 0.8 18 12.6 WNW 26 43 14 23 - - 0.0
18/01:00pm 27.6 21.4 -0.5 16 13.2 WNW 22 39 12 21 - - 0.0
18/12:49pm 28.1 20.8 -0.1 16 13.4 WNW 28 50 15 27 - - 0.0
18/12:30pm 27.6 22.0 1.2 18 12.8 WNW 20 33 11 18 - - 0.0
18/12:00pm 27.2 21.5 0.8 18 12.6 W 20 33 11 18 - - 0.0
18/11:30am 26.7 20.7 1.2 19 12.2 W 22 32 12 17 - - 0.0
18/11:00am 25.2 21.1 2.0 22 11.2 WNW 13 26 7 14 - - 0.0
18/10:30am 24.3 20.5 1.9 23 10.7 NNW 11 20 6 11 - - 0.0
18/10:00am 23.7 20.1 3.1 26 10.0 N 11 17 6 9 - - 0.0
18/09:30am 21.6 18.1 3.3 30 8.8 N 11 19 6 10 - - 0.0
18/09:00am 21.4 18.0 4.0 32 8.5 NNE 11 17 6 9 - - 0.0
18/08:30am 20.3 17.0 4.8 36 7.6 NE 11 17 6 9 - - 0.0
18/08:00am 19.1 16.7 6.9 45 6.2 ENE 9 13 5 7 - - 0.0
18/07:30am 15.0 13.1 6.8 58 4.0 E 6 11 3 6 - - 0.0
18/07:00am 11.5 10.9 7.2 75 2.1 CALM 0 0 0 0 - - 0.0
18/06:30am 7.5 6.3 4.8 83 1.2 CALM 0 0 0 0 - - 0.0
18/06:00am 5.9 4.6 3.9 87 0.9 CALM 0 0 0 0 - - 0.0
18/05:30am 6.0 4.7 4.0 87 0.9 CALM 0 4 0 2 - - 0.0
18/05:00am 6.6 5.4 4.4 86 1.0 CALM 0 0 0 0 - - 0.0
18/04:30am 6.9 5.7 4.7 86 1.0 CALM 0 0 0 0 - - 0.0
18/04:00am 7.3 6.2 4.9 85 1.1 CALM 0 0 0 0 - - 0.0
18/03:30am 8.0 6.9 5.1 82 1.3 CALM 0 0 0 0 - - 0.0
18/03:00am 8.7 7.6 5.1 78 1.6 CALM 0 0 0 0 - - 0.0
18/02:30am 9.2 8.2 5.8 79 1.6 CALM 0 0 0 0 - - 0.0
18/02:00am 9.1 8.0 4.9 75 1.9 CALM 0 0 0 0 - - 0.0
18/01:30am 9.4 8.1 4.2 70 2.3 CALM 0 0 0 0 - - 0.0
18/01:00am 8.8 7.6 4.6 75 1.9 CALM 0 0 0 0 - - 0.0
18/12:30am 8.9 7.5 3.7 70 2.3 CALM 0 0 0 0 - - 0.0
18/12:00am 9.6 8.4 4.8 72 2.2 CALM 0 0 0 0 - - 0.0
 
Date/Time
EDT
Temp
°C
App
Temp
°C
Dew
Point
Rel
Hum
%
Delta-T
°C
Wind Press
QNH
hPa
Press
MSL
hPa
Rain
since 9 am
mm
Dir
 
Spd
km/h
Gust
km/h
Spd
kts
Gust
kts
17/11:30pm 10.1 8.8 4.0 66 2.7 CALM 0 0 0 0 - - 0.0
17/11:00pm 10.3 8.9 3.6 63 3.0 CALM 0 0 0 0 - - 0.0
17/10:30pm 12.2 10.7 2.9 53 4.1 CALM 0 4 0 2 - - 0.0
17/10:00pm 12.3 10.1 3.3 54 4.0 SW 4 7 2 4 - - 0.0
17/09:30pm 16.9 13.8 1.4 35 6.9 WNW 7 11 4 6 - - 0.0
17/09:00pm 18.7 15.1 0.8 30 8.0 WNW 9 13 5 7 - - 0.0
17/08:30pm 19.5 16.3 1.0 29 8.4 WNW 7 11 4 6 - - 0.0
17/08:00pm 21.9 18.4 1.0 25 9.6 SW 9 15 5 8 - - 0.0
17/07:30pm 23.9 20.1 -0.4 20 11.1 WSW 9 13 5 7 - - 0.0
17/07:00pm 24.4 21.1 0.0 20 11.3 SW 7 13 4 7 - - 0.0
17/06:30pm 24.3 19.6 -1.5 18 11.6 SW 13 20 7 11 - - 0.0
17/06:00pm 24.8 20.2 -1.1 18 11.8 SW 13 19 7 10 - - 0.0
17/05:30pm 24.8 19.8 -1.1 18 11.8 W 15 20 8 11 - - 0.0
17/05:00pm 24.8 19.4 -1.1 18 11.8 W 17 24 9 13 - - 0.0
17/04:30pm 24.8 20.7 -0.4 19 11.6 SW 11 20 6 11 - - 0.0
17/04:00pm 25.1 20.0 0.6 20 11.5 WSW 17 28 9 15 - - 0.0
17/03:30pm 24.6 19.4 0.2 20 11.3 SW 17 28 9 15 - - 0.0
17/03:00pm 23.9 19.0 -0.4 20 11.1 WSW 15 24 8 13 - - 0.0
17/02:30pm 23.3 17.8 0.4 22 10.6 SSW 19 32 10 17 - - 0.0
17/02:00pm 23.0 17.8 0.2 22 10.5 SW 17 28 9 15 - - 0.0
17/01:30pm 22.2 17.5 0.7 24 9.9 SSW 15 28 8 15 - - 0.0
17/01:00pm 22.7 17.3 1.1 24 10.1 SW 19 33 10 18 - - 0.0
17/12:30pm 21.6 16.3 1.8 27 9.3 WSW 19 48 10 26 - - 0.0
17/12:00pm 20.9 15.9 1.2 27 9.1 W 17 28 9 15 - - 0.0
17/11:30am 19.8 14.6 2.2 31 8.2 WSW 19 30 10 16 - - 0.0
17/11:00am 19.6 14.8 2.5 32 8.0 WSW 17 24 9 13 - - 0.0
17/10:30am 19.0 13.6 2.4 33 7.7 SW 20 35 11 19 - - 0.0
17/10:00am 18.6 13.8 2.4 34 7.5 SSW 17 26 9 14 - - 0.0
17/09:30am 17.7 12.9 2.5 36 7.0 SSW 17 28 9 15 - - 0.0
17/09:00am 16.8 11.8 3.8 42 6.1 SSW 19 24 10 13 - - 0.0
17/08:30am 16.1 11.5 5.4 49 5.2 SSW 19 28 10 15 - - 0.0
17/08:00am 14.3 10.1 5.7 56 4.1 SW 17 28 9 15 - - 0.0
17/07:30am 13.1 8.8 5.3 59 3.7 SW 17 22 9 12 - - 0.0
17/07:00am 11.9 8.3 5.1 63 3.2 SW 13 20 7 11 - - 0.0
17/06:30am 10.2 6.6 5.0 70 2.4 WSW 13 15 7 8 - - 0.0
17/06:00am 9.3 5.2 4.3 71 2.2 SW 15 17 8 9 - - 0.0
17/05:30am 8.9 5.1 3.7 70 2.3 WSW 13 17 7 9 - - 0.0
17/05:00am 9.7 6.2 3.4 65 2.8 SW 11 15 6 8 - - 0.0
17/04:30am 10.9 6.6 3.5 60 3.3 SW 15 20 8 11 - - 0.0
17/04:00am 11.5 7.2 3.0 56 3.7 SW 15 20 8 11 - - 0.0
17/03:30am 12.0 7.7 3.3 55 3.9 SW 15 19 8 10 - - 0.0
17/03:00am 12.8 9.0 3.7 54 4.1 SSW 13 17 7 9 - - 0.0
17/02:30am 13.3 8.4 4.2 54 4.2 SW 19 28 10 15 - - 0.0
17/02:00am 13.7 9.3 4.6 54 4.2 SSW 17 26 9 14 - - 0.0
17/01:30am 13.3 9.2 4.5 55 4.1 SW 15 20 8 11 - - 0.0
17/01:00am 15.0 10.1 4.1 48 5.1 SSW 19 30 10 16 - - 0.0
17/12:30am 15.6 9.8 4.6 48 5.2 SW 24 35 13 19 - - 0.0
17/12:00am 16.3 11.5 5.6 49 5.2 SW 20 32 11 17 - - 0.0
 
Date/Time
EDT
Temp
°C
App
Temp
°C
Dew
Point
Rel
Hum
%
Delta-T
°C
Wind Press
QNH
hPa
Press
MSL
hPa
Rain
since 9 am
mm
Dir
 
Spd
km/h
Gust
km/h
Spd
kts
Gust
kts
16/11:30pm 17.6 11.9 6.5 48 5.5 SW 26 43 14 23 - - 0.0
16/11:09pm 18.9 12.8 6.7 45 6.2 SW 28 46 15 25 - - 0.0
16/11:00pm 19.6 13.2 5.3 39 7.1 WSW 28 41 15 22 - - 0.0
16/10:30pm 20.4 14.1 5.6 38 7.4 SW 28 39 15 21 - - 0.0
16/10:00pm 21.0 15.4 7.3 41 7.1 WSW 26 37 14 20 - - 0.0
16/09:41pm 22.0 15.4 7.8 40 7.5 SW 32 50 17 27 - - 0.0
16/09:30pm 22.3 16.2 8.4 41 7.4 SW 30 46 16 25 - - 0.0
16/09:00pm 24.0 15.8 8.0 36 8.5 WSW 41 59 22 32 - - 0.0
16/08:30pm 26.6 20.2 5.0 25 11.1 SW 28 50 15 27 - - 0.0
16/08:00pm 28.5 20.7 1.9 18 13.1 WSW 32 52 17 28 - - 0.0
16/07:34pm 29.5 21.5 0.2 15 14.1 WSW 32 50 17 27 - - 0.0
16/07:30pm 29.5 21.3 0.2 15 14.1 WSW 33 44 18 24 - - 0.0
16/07:00pm 30.7 23.3 -0.8 13 15.0 W 28 50 15 27 - - 0.0
16/06:30pm 31.8 23.0 -1.1 12 15.7 W 35 54 19 29 - - 0.0
16/06:00pm 32.8 24.3 -1.5 11 16.4 W 33 52 18 28 - - 0.0
16/05:30pm 33.6 24.1 -0.9 11 16.8 W 39 59 21 32 - - 0.0
16/05:08pm 34.1 25.4 -0.5 11 17.0 W 35 54 19 29 - - 0.0
16/05:00pm 34.3 23.9 -1.7 10 17.3 W 43 57 23 31 - - 0.0
16/04:30pm 34.2 25.3 -1.7 10 17.3 W 35 59 19 32 - - 0.0
16/04:13pm 34.5 26.0 -1.5 10 17.4 WNW 33 67 18 36 - - 0.0
16/04:12pm 34.6 26.2 -1.4 10 17.5 WNW 33 67 18 36 - - 0.0
16/04:05pm 35.4 28.7 -0.8 10 17.8 WNW 24 67 13 36 - - 0.0
16/04:00pm 34.7 28.0 -1.4 10 17.5 WNW 24 39 13 21 - - 0.0
16/03:30pm 34.2 28.6 -3.2 9 17.6 WNW 17 26 9 14 - - 0.0

Other Formats:

Comma delimited format used in spreadsheet applications
http://www.bom.gov.au/fwo/IDV60801/IDV60801.95837.axf

JavaScript Object Notation format (JSON) in row-major order
http://www.bom.gov.au/fwo/IDV60801/IDV60801.95837.json